Time;durP1;ratioP1;P1;durP2;ratioP2;P2;SDS_P1;SDS_P2;PMS_P1;PMS_P2;Temp;Humidity;BMP_temperature;BMP_pressure;BME280_temperature;BME280_humidity;BME280_pressure;Samples;Min_cycle;Max_cycle;Signal;HPM_P1;HPM_P2
2021/07/21 00:00:11;;;;;;;10.20;6.60;;;;;;;;;;5032451;28;20033;-88
2021/07/21 00:02:38;;;;;;;11.43;5.82;;;;;;;;;;5032335;28;20447;-89
2021/07/21 00:05:06;;;;;;;11.38;7.38;;;;;;;;;;5032415;28;20078;-89
2021/07/21 00:07:32;;;;;;;11.52;6.97;;;;;;;;;;5033530;28;20029;-87
2021/07/21 00:09:58;;;;;;;26.67;8.93;;;;;;;;;;5033610;28;20381;-89
2021/07/21 00:15:08;;;;;;;10.18;6.95;;;;;;;;;;5033806;28;20119;-88
2021/07/21 00:17:36;;;;;;;9.98;7.93;;;;;;;;;;5033337;28;20056;-89
2021/07/21 00:20:10;;;;;;;12.00;6.95;;;;;;;;;;5033630;28;20099;-89
2021/07/21 00:22:46;;;;;;;9.82;6.93;;;;;;;;;;5033456;28;20060;-89
2021/07/21 00:25:14;;;;;;;10.48;5.82;;;;;;;;;;5032280;28;20033;-89
2021/07/21 00:27:44;;;;;;;13.15;6.57;;;;;;;;;;5032195;28;20022;-89
2021/07/21 00:30:13;;;;;;;12.93;7.70;;;;;;;;;;5033370;28;20087;-89
2021/07/21 00:32:39;;;;;;;9.35;6.10;;;;;;;;;;5035967;28;20031;-90
2021/07/21 00:35:10;;;;;;;15.10;7.00;;;;;;;;;;5037392;28;20057;-89
2021/07/21 00:37:36;;;;;;;11.05;7.10;;;;;;;;;;5036228;28;20056;-89
2021/07/21 00:40:04;;;;;;;9.15;6.53;;;;;;;;;;5036065;28;20065;-89
2021/07/21 00:42:29;;;;;;;12.48;6.75;;;;;;;;;;5037379;28;20025;-89
2021/07/21 00:44:55;;;;;;;11.63;6.30;;;;;;;;;;5037189;28;20017;-89
2021/07/21 00:47:21;;;;;;;9.40;6.40;;;;;;;;;;5037087;28;20029;-89
2021/07/21 00:49:47;;;;;;;10.60;6.50;;;;;;;;;;5037150;28;20029;-88
2021/07/21 00:52:12;;;;;;;11.70;6.30;;;;;;;;;;5037093;28;20387;-89
2021/07/21 00:54:39;;;;;;;12.55;8.13;;;;;;;;;;5035894;28;20087;-89
2021/07/21 00:57:05;;;;;;;11.98;7.65;;;;;;;;;;5037123;28;20021;-88
2021/07/21 00:59:35;;;;;;;12.73;7.80;;;;;;;;;;5035617;28;20063;-89
2021/07/21 01:02:02;;;;;;;11.15;7.95;;;;;;;;;;5036823;28;20473;-89
2021/07/21 01:04:29;;;;;;;10.38;6.53;;;;;;;;;;5035535;28;20030;-88
2021/07/21 01:06:56;;;;;;;9.57;6.78;;;;;;;;;;5036880;28;20507;-88
2021/07/21 01:09:21;;;;;;;12.90;8.27;;;;;;;;;;5035460;28;20484;-88
2021/07/21 01:12:01;;;;;;;11.15;7.68;;;;;;;;;;5035417;28;20030;-87
2021/07/21 01:14:35;;;;;;;11.25;6.90;;;;;;;;;;5035554;28;20120;-88
2021/07/21 01:17:05;;;;;;;13.15;8.13;;;;;;;;;;5052160;28;20025;-88
2021/07/21 01:20:25;;;;;;;12.90;7.88;;;;;;;;;;5036547;28;20195;-88
2021/07/21 01:23:13;;;;;;;;;;;;;;;;;;5032116;28;20041;-88
2021/07/21 01:26:31;;;;;;;10.05;6.85;;;;;;;;;;5059191;28;19901;-88
2021/07/21 01:29:00;;;;;;;10.43;6.97;;;;;;;;;;5045193;28;20041;-88
2021/07/21 01:31:37;;;;;;;10.32;6.82;;;;;;;;;;5037246;28;20156;-88
2021/07/21 01:34:08;;;;;;;12.50;8.25;;;;;;;;;;5037319;28;20108;-88
2021/07/21 01:36:39;;;;;;;10.60;7.22;;;;;;;;;;5036510;28;20018;-88
2021/07/21 01:39:09;;;;;;;10.70;6.90;;;;;;;;;;5036607;28;20026;-88
2021/07/21 01:41:39;;;;;;;13.43;7.35;;;;;;;;;;5036390;28;20031;-88
2021/07/21 01:44:11;;;;;;;12.18;7.57;;;;;;;;;;5036015;28;20465;-88
2021/07/21 01:46:40;;;;;;;11.02;6.80;;;;;;;;;;5034910;28;20053;-88
2021/07/21 01:49:07;;;;;;;11.15;7.68;;;;;;;;;;5034845;28;20500;-88
2021/07/21 01:51:34;;;;;;;13.45;7.70;;;;;;;;;;5036043;28;20033;-88
2021/07/21 01:54:02;;;;;;;13.35;7.55;;;;;;;;;;5035967;28;20029;-88
2021/07/21 01:56:29;;;;;;;10.80;7.57;;;;;;;;;;5034857;28;20048;-88
2021/07/21 01:58:56;;;;;;;15.77;8.52;;;;;;;;;;5035915;28;20033;-88
2021/07/21 02:01:27;;;;;;;11.73;8.30;;;;;;;;;;5035799;28;20026;-87
2021/07/21 02:03:56;;;;;;;13.27;7.97;;;;;;;;;;5035150;28;20067;-88
2021/07/21 02:06:22;;;;;;;15.35;8.00;;;;;;;;;;5036004;28;20373;-87
2021/07/21 02:08:48;;;;;;;15.48;7.63;;;;;;;;;;5035717;28;20389;-88
2021/07/21 02:11:14;;;;;;;10.55;7.47;;;;;;;;;;5034343;28;20037;-87
2021/07/21 02:13:40;;;;;;;12.88;7.60;;;;;;;;;;5035580;28;20034;-87
2021/07/21 02:16:07;;;;;;;12.30;8.77;;;;;;;;;;5034146;28;20392;-88
2021/07/21 02:18:33;;;;;;;14.32;8.40;;;;;;;;;;5033974;28;20045;-88
2021/07/21 02:21:04;;;;;;;13.85;8.23;;;;;;;;;;5035478;28;20022;-88
2021/07/21 02:23:30;;;;;;;17.23;8.77;;;;;;;;;;5034175;28;20441;-88
2021/07/21 02:26:00;;;;;;;14.55;8.38;;;;;;;;;;5035322;28;20032;-87
2021/07/21 02:28:26;;;;;;;11.75;8.23;;;;;;;;;;5035474;28;20104;-88
2021/07/21 02:30:55;;;;;;;10.80;7.45;;;;;;;;;;5035149;28;20021;-88
2021/07/21 02:33:43;;;;;;;12.13;6.90;;;;;;;;;;5034090;28;20025;-88
2021/07/21 02:36:09;;;;;;;10.70;6.93;;;;;;;;;;5050607;28;20075;-87
2021/07/21 02:38:35;;;;;;;11.75;6.47;;;;;;;;;;5035459;28;20049;-88
2021/07/21 02:41:01;;;;;;;10.43;6.82;;;;;;;;;;5035054;28;20021;-87
2021/07/21 02:43:27;;;;;;;11.57;7.43;;;;;;;;;;5035337;28;20390;-88
2021/07/21 02:45:53;;;;;;;12.13;7.60;;;;;;;;;;5033680;28;20014;-88
2021/07/21 02:48:19;;;;;;;12.95;7.32;;;;;;;;;;5033669;28;20025;-88
2021/07/21 02:50:48;;;;;;;10.30;6.88;;;;;;;;;;5033564;28;20125;-88
2021/07/21 02:53:22;;;;;;;12.20;6.95;;;;;;;;;;5034876;28;20040;-88
2021/07/21 02:55:53;;;;;;;11.40;6.97;;;;;;;;;;5034601;28;20519;-89
2021/07/21 02:58:34;;;;;;;12.48;6.18;;;;;;;;;;5034282;28;20033;-89
2021/07/21 03:01:02;;;;;;;12.77;7.25;;;;;;;;;;5034775;28;20481;-88
2021/07/21 03:03:30;;;;;;;11.57;7.13;;;;;;;;;;5035681;28;20473;-90
2021/07/21 03:06:00;;;;;;;12.98;7.97;;;;;;;;;;5034787;28;20374;-89
2021/07/21 03:08:29;;;;;;;;;;;;;;;;;;5036351;28;20103;-90
2021/07/21 03:10:58;;;;;;;10.82;6.32;;;;;;;;;;5034124;28;19917;-90
2021/07/21 03:13:38;;;;;;;13.45;6.85;;;;;;;;;;5035869;28;20025;-89
2021/07/21 03:16:05;;;;;;;10.55;7.88;;;;;;;;;;5034828;28;20057;-89
2021/07/21 03:18:33;;;;;;;12.85;7.88;;;;;;;;;;5032940;28;20072;-90
2021/07/21 03:20:59;;;;;;;11.82;7.05;;;;;;;;;;5034473;28;20025;-89
2021/07/21 03:23:27;;;;;;;14.05;7.65;;;;;;;;;;5034463;28;20017;-88
2021/07/21 03:25:55;;;;;;;12.98;8.32;;;;;;;;;;5034338;28;20025;-87
2021/07/21 03:28:24;;;;;;;14.40;7.63;;;;;;;;;;5034457;28;20025;-89
2021/07/21 03:30:52;;;;;;;10.48;5.93;;;;;;;;;;5033933;28;20032;-88
2021/07/21 03:33:19;;;;;;;13.18;6.28;;;;;;;;;;5034652;28;20413;-87
2021/07/21 03:35:45;;;;;;;9.75;6.18;;;;;;;;;;5034302;28;20416;-88
2021/07/21 03:38:13;;;;;;;12.93;6.97;;;;;;;;;;5034122;28;20022;-88
2021/07/21 03:40:40;;;;;;;11.52;8.98;;;;;;;;;;5032646;28;20031;-87
2021/07/21 03:43:07;;;;;;;11.00;6.70;;;;;;;;;;5032667;28;20112;-88
2021/07/21 03:45:34;;;;;;;9.85;6.30;;;;;;;;;;5049355;28;20496;-88
2021/07/21 03:48:01;;;;;;;9.73;6.63;;;;;;;;;;5034031;28;20029;-88
2021/07/21 03:50:27;;;;;;;10.55;7.22;;;;;;;;;;5033856;28;20026;-87
2021/07/21 03:52:54;;;;;;;13.95;7.32;;;;;;;;;;5033830;28;20021;-89
2021/07/21 03:55:22;;;;;;;11.80;5.90;;;;;;;;;;5032650;28;20078;-90
2021/07/21 03:57:49;;;;;;;11.20;7.28;;;;;;;;;;5032632;28;20033;-91
2021/07/21 04:00:17;;;;;;;11.25;7.32;;;;;;;;;;5032468;28;20087;-89
2021/07/21 04:02:46;;;;;;;11.45;7.00;;;;;;;;;;5034805;28;20034;-90
2021/07/21 04:05:14;;;;;;;13.13;7.13;;;;;;;;;;5038818;28;20104;-89
2021/07/21 04:07:42;;;;;;;10.23;7.07;;;;;;;;;;5038621;28;20029;-90
2021/07/21 04:10:09;;;;;;;13.40;6.10;;;;;;;;;;5033943;28;20084;-89
2021/07/21 04:12:39;;;;;;;16.30;6.30;;;;;;;;;;5033775;28;20056;-88
2021/07/21 04:15:06;;;;;;;14.57;7.30;;;;;;;;;;5033660;28;20052;-89
2021/07/21 04:17:33;;;;;;;16.65;6.82;;;;;;;;;;5048935;28;20029;-89
2021/07/21 04:20:05;;;;;;;9.98;6.53;;;;;;;;;;5033760;28;20029;-88
2021/07/21 04:22:32;;;;;;;10.70;6.80;;;;;;;;;;5033392;28;20033;-89
2021/07/21 04:24:58;;;;;;;10.77;7.25;;;;;;;;;;5033961;28;20029;-86
2021/07/21 04:27:25;;;;;;;9.90;6.72;;;;;;;;;;5033772;28;20078;-88
2021/07/21 04:29:51;;;;;;;11.90;6.97;;;;;;;;;;5033513;28;20022;-87
2021/07/21 04:32:18;;;;;;;10.90;6.85;;;;;;;;;;5032196;28;20029;-91
2021/07/21 04:34:45;;;;;;;14.05;7.20;;;;;;;;;;5033512;28;20080;-91
2021/07/21 04:37:11;;;;;;;12.23;6.95;;;;;;;;;;5033598;28;20032;-90
2021/07/21 04:39:38;;;;;;;11.93;6.55;;;;;;;;;;5034177;28;20036;-90
2021/07/21 04:42:04;;;;;;;12.40;6.13;;;;;;;;;;5033891;28;20037;-90
2021/07/21 04:44:30;;;;;;;14.95;6.95;;;;;;;;;;5033280;28;20030;-89
2021/07/21 04:46:59;;;;;;;9.07;5.38;;;;;;;;;;5031956;28;20025;-88
2021/07/21 04:49:26;;;;;;;10.77;6.68;;;;;;;;;;5033382;28;20124;-90
2021/07/21 04:51:55;;;;;;;11.57;6.10;;;;;;;;;;5031959;28;20036;-84
2021/07/21 04:54:21;;;;;;;12.02;7.03;;;;;;;;;;5033199;28;20029;-86
2021/07/21 04:56:47;;;;;;;10.88;6.20;;;;;;;;;;5033190;28;20500;-85
2021/07/21 04:59:12;;;;;;;13.23;8.45;;;;;;;;;;5033146;28;20028;-89
2021/07/21 05:01:39;;;;;;;11.35;6.78;;;;;;;;;;5033083;28;20033;-93
2021/07/21 05:04:06;;;;;;;12.50;7.97;;;;;;;;;;5032169;28;20029;-85
2021/07/21 05:06:32;;;;;;;11.70;7.32;;;;;;;;;;5032991;28;20489;-86
2021/07/21 05:08:58;;;;;;;12.30;6.70;;;;;;;;;;5031701;28;20083;-88
2021/07/21 05:11:24;;;;;;;9.90;6.15;;;;;;;;;;5032803;28;20025;-89
2021/07/21 05:13:50;;;;;;;16.35;7.30;;;;;;;;;;5032940;28;20034;-88
2021/07/21 05:16:16;;;;;;;12.15;6.82;;;;;;;;;;5031620;28;20075;-89
2021/07/21 05:18:42;;;;;;;11.02;6.60;;;;;;;;;;5033680;28;20128;-90
2021/07/21 05:21:09;;;;;;;12.10;5.95;;;;;;;;;;5036509;28;20532;-87
2021/07/21 05:23:36;;;;;;;11.88;6.45;;;;;;;;;;5035091;28;20037;-87
2021/07/21 05:26:03;;;;;;;10.52;6.70;;;;;;;;;;5035399;28;20485;-86
2021/07/21 05:28:29;;;;;;;11.32;7.60;;;;;;;;;;5036389;28;20036;-86
2021/07/21 05:30:55;;;;;;;10.85;7.63;;;;;;;;;;5036441;28;20029;-87
2021/07/21 05:33:21;;;;;;;13.07;7.45;;;;;;;;;;5036354;28;20025;-86
2021/07/21 05:35:47;;;;;;;12.02;7.38;;;;;;;;;;5035352;28;20108;-84
2021/07/21 05:38:13;;;;;;;10.85;7.07;;;;;;;;;;5034845;28;20072;-85
2021/07/21 05:40:39;;;;;;;9.23;5.88;;;;;;;;;;5035392;28;20183;-84
2021/07/21 05:43:05;;;;;;;11.52;6.50;;;;;;;;;;5039158;28;20493;-86
2021/07/21 05:45:31;;;;;;;11.75;8.00;;;;;;;;;;5044035;28;20026;-86
2021/07/21 05:47:57;;;;;;;12.18;6.60;;;;;;;;;;5045893;28;20005;-85
2021/07/21 05:50:23;;;;;;;9.40;6.32;;;;;;;;;;5047741;28;20052;-85
2021/07/21 05:52:49;;;;;;;10.13;6.70;;;;;;;;;;5036879;28;20021;-84
2021/07/21 05:55:15;;;;;;;12.80;10.10;;;;;;;;;;5036619;28;20075;-84
2021/07/21 05:57:44;;;;;;;13.25;7.00;;;;;;;;;;5036323;28;20473;-87
2021/07/21 06:00:11;;;;;;;11.45;8.10;;;;;;;;;;5034820;28;20366;-89
2021/07/21 06:02:37;;;;;;;12.82;8.10;;;;;;;;;;5035749;28;20033;-86
2021/07/21 06:05:05;;;;;;;13.93;8.18;;;;;;;;;;5035828;28;20109;-84
2021/07/21 06:07:31;;;;;;;12.45;7.18;;;;;;;;;;5035617;28;20029;-86
2021/07/21 06:09:56;;;;;;;12.35;8.85;;;;;;;;;;5035772;28;20026;-85
2021/07/21 06:12:22;;;;;;;13.98;7.25;;;;;;;;;;5035831;28;20022;-89
2021/07/21 06:14:48;;;;;;;11.27;8.25;;;;;;;;;;5034543;28;20473;-91
2021/07/21 06:17:15;;;;;;;10.82;6.13;;;;;;;;;;5036066;28;20132;-85
2021/07/21 06:19:40;;;;;;;11.70;7.57;;;;;;;;;;5033933;28;20045;-86
2021/07/21 06:22:06;;;;;;;10.68;7.28;;;;;;;;;;5034057;28;20397;-86
2021/07/21 06:24:33;;;;;;;12.75;7.45;;;;;;;;;;5034053;28;20032;-86
2021/07/21 06:27:00;;;;;;;9.35;6.70;;;;;;;;;;5034153;28;20144;-86
2021/07/21 06:29:26;;;;;;;12.45;6.10;;;;;;;;;;5035567;28;20022;-84
2021/07/21 06:31:52;;;;;;;10.50;6.43;;;;;;;;;;5033749;28;20087;-84
2021/07/21 06:34:17;;;;;;;10.57;7.00;;;;;;;;;;5035640;28;20030;-86
2021/07/21 06:36:43;;;;;;;11.00;6.40;;;;;;;;;;5033873;28;20021;-86
2021/07/21 06:39:09;;;;;;;9.93;7.03;;;;;;;;;;5035160;28;20029;-84
2021/07/21 06:41:36;;;;;;;10.55;6.88;;;;;;;;;;5033739;28;20104;-84
2021/07/21 06:44:02;;;;;;;12.52;8.77;;;;;;;;;;5033827;28;20385;-90
2021/07/21 06:46:30;;;;;;;11.35;7.70;;;;;;;;;;5034961;28;20053;-83
2021/07/21 06:48:55;;;;;;;10.35;7.35;;;;;;;;;;5033713;28;20049;-84
2021/07/21 06:51:22;;;;;;;12.38;5.85;;;;;;;;;;5034764;28;20072;-84
2021/07/21 06:53:49;;;;;;;10.02;6.22;;;;;;;;;;5034992;28;20021;-84
2021/07/21 06:56:15;;;;;;;10.82;6.07;;;;;;;;;;5034790;28;20025;-83
2021/07/21 06:58:42;;;;;;;8.52;6.05;;;;;;;;;;5034916;28;20099;-83
2021/07/21 07:01:08;;;;;;;12.52;5.85;;;;;;;;;;5034642;28;20028;-83
2021/07/21 07:03:34;;;;;;;9.65;6.15;;;;;;;;;;5034661;28;20045;-84
2021/07/21 07:06:01;;;;;;;8.70;6.35;;;;;;;;;;5034425;28;20042;-83
2021/07/21 07:08:27;;;;;;;10.77;6.10;;;;;;;;;;5033170;28;20022;-83
2021/07/21 07:10:53;;;;;;;9.73;6.38;;;;;;;;;;5034494;28;20140;-84
2021/07/21 07:13:22;;;;;;;11.52;8.20;;;;;;;;;;5034388;28;20033;-84
2021/07/21 07:15:50;;;;;;;10.20;5.88;;;;;;;;;;5033015;28;20040;-89
2021/07/21 07:18:18;;;;;;;10.57;7.28;;;;;;;;;;5033152;28;20542;-89
2021/07/21 07:20:45;;;;;;;8.75;5.95;;;;;;;;;;5034333;28;20096;-84
2021/07/21 07:23:12;;;;;;;10.13;5.90;;;;;;;;;;5034369;28;20492;-84
2021/07/21 07:25:40;;;;;;;9.48;6.15;;;;;;;;;;5034101;28;20033;-86
2021/07/21 07:28:06;;;;;;;10.23;7.00;;;;;;;;;;5034117;28;20024;-86
2021/07/21 07:30:32;;;;;;;10.88;6.30;;;;;;;;;;5034231;28;20381;-88
2021/07/21 07:32:57;;;;;;;9.48;4.90;;;;;;;;;;5034351;28;20030;-89
2021/07/21 07:35:24;;;;;;;11.70;6.75;;;;;;;;;;5034089;28;20029;-87
2021/07/21 07:37:50;;;;;;;10.93;6.45;;;;;;;;;;5049452;28;20104;-85
2021/07/21 07:40:17;;;;;;;9.25;5.88;;;;;;;;;;5033538;28;20059;-84
2021/07/21 07:42:43;;;;;;;9.55;6.15;;;;;;;;;;5033890;28;20442;-83
2021/07/21 07:45:09;;;;;;;10.02;5.32;;;;;;;;;;5033763;28;20064;-80
2021/07/21 07:47:35;;;;;;;10.40;6.00;;;;;;;;;;5034142;28;20022;-87
2021/07/21 07:50:04;;;;;;;9.40;6.07;;;;;;;;;;5033708;28;20542;-89
2021/07/21 07:52:29;;;;;;;10.45;6.38;;;;;;;;;;5032430;28;20033;-85
2021/07/21 07:54:55;;;;;;;9.07;6.10;;;;;;;;;;5033971;28;20032;-84
2021/07/21 07:57:21;;;;;;;9.60;6.90;;;;;;;;;;5033501;28;20083;-89
2021/07/21 07:59:47;;;;;;;8.85;6.75;;;;;;;;;;5032973;28;20084;-86
2021/07/21 08:02:12;;;;;;;9.85;6.32;;;;;;;;;;5032272;28;20079;-87
2021/07/21 08:04:38;;;;;;;9.65;5.63;;;;;;;;;;5032459;28;20017;-88
2021/07/21 08:07:04;;;;;;;11.80;7.20;;;;;;;;;;5033536;28;20116;-88
2021/07/21 08:09:30;;;;;;;9.40;6.70;;;;;;;;;;5032467;28;20028;-87
2021/07/21 08:11:58;;;;;;;13.02;7.40;;;;;;;;;;5032128;28;20056;-90
2021/07/21 08:14:24;;;;;;;9.00;6.20;;;;;;;;;;5032261;28;20504;-88
2021/07/21 08:16:52;;;;;;;10.38;7.90;;;;;;;;;;5031901;28;20033;-88
2021/07/21 08:19:18;;;;;;;11.48;7.80;;;;;;;;;;5031952;28;20050;-89
2021/07/21 08:21:45;;;;;;;9.95;6.45;;;;;;;;;;5032116;28;20025;-87
2021/07/21 08:24:12;;;;;;;9.57;6.10;;;;;;;;;;5033409;28;20029;-87
2021/07/21 08:26:38;;;;;;;10.05;5.85;;;;;;;;;;5033367;28;20033;-87
2021/07/21 08:29:04;;;;;;;9.75;6.55;;;;;;;;;;5033404;28;20038;-89
2021/07/21 08:31:30;;;;;;;10.60;5.68;;;;;;;;;;5033677;28;20037;-89
2021/07/21 08:34:00;;;;;;;10.35;6.93;;;;;;;;;;5035114;28;20025;-88
2021/07/21 08:36:30;;;;;;;9.77;6.82;;;;;;;;;;5034218;28;20030;-87
2021/07/21 08:38:56;;;;;;;9.80;6.38;;;;;;;;;;5032505;28;20033;-91
2021/07/21 08:41:22;;;;;;;9.05;6.57;;;;;;;;;;5036441;28;20030;-89
2021/07/21 08:43:48;;;;;;;7.72;5.53;;;;;;;;;;5035380;28;20030;-88
2021/07/21 08:46:14;;;;;;;10.30;5.72;;;;;;;;;;5033834;28;20393;-88
2021/07/21 08:48:40;;;;;;;7.95;4.85;;;;;;;;;;5034383;28;20423;-90
2021/07/21 08:54:19;;;;;;;18.70;6.82;;;;;;;;;;5006839;28;20088;-91
2021/07/21 08:56:45;;;;;;;9.82;5.53;;;;;;;;;;5040161;28;20044;-90
2021/07/21 08:59:15;;;;;;;10.85;6.32;;;;;;;;;;5036115;28;20112;-89
2021/07/21 09:01:41;;;;;;;16.25;7.15;;;;;;;;;;5036503;28;20179;-92
2021/07/21 09:04:07;;;;;;;10.18;5.75;;;;;;;;;;5038220;28;20018;-91
2021/07/21 09:06:33;;;;;;;9.27;5.05;;;;;;;;;;5037247;28;20044;-90
2021/07/21 09:08:59;;;;;;;21.27;9.88;;;;;;;;;;5035749;28;20477;-90
2021/07/21 09:11:25;;;;;;;7.07;4.68;;;;;;;;;;5052849;28;20025;-91
2021/07/21 09:13:51;;;;;;;10.10;6.85;;;;;;;;;;5035594;28;20487;-89
2021/07/21 09:16:17;;;;;;;8.05;4.88;;;;;;;;;;5036710;28;20114;-86
2021/07/21 09:19:00;;;;;;;9.95;4.20;;;;;;;;;;5039265;28;20053;-88
2021/07/21 09:21:27;;;;;;;7.32;5.10;;;;;;;;;;5038643;28;20108;-87
2021/07/21 09:23:58;;;;;;;7.80;4.25;;;;;;;;;;5042680;28;20053;-86
2021/07/21 09:26:23;;;;;;;7.25;5.30;;;;;;;;;;5037370;28;20057;-87
2021/07/21 09:28:53;;;;;;;9.55;7.55;;;;;;;;;;5035549;28;20495;-86
2021/07/21 09:31:40;;;;;;;8.23;5.72;;;;;;;;;;5036241;28;20028;-84
2021/07/21 09:34:12;;;;;;;10.02;5.47;;;;;;;;;;5036684;28;20098;-87
2021/07/21 09:36:39;;;;;;;9.25;4.35;;;;;;;;;;5037435;28;20075;-87
2021/07/21 09:39:05;;;;;;;10.07;3.85;;;;;;;;;;5035459;28;20538;-84
2021/07/21 09:41:30;;;;;;;7.85;4.68;;;;;;;;;;5036551;28;20034;-84
2021/07/21 09:44:05;;;;;;;7.78;3.45;;;;;;;;;;5039463;28;20449;-83
2021/07/21 09:46:38;;;;;;;8.38;4.68;;;;;;;;;;5044968;28;20034;-84
2021/07/21 09:49:19;;;;;;;7.75;4.32;;;;;;;;;;5052694;28;20024;-83
2021/07/21 09:51:45;;;;;;;8.93;4.25;;;;;;;;;;5044378;28;20025;-83
2021/07/21 09:54:18;;;;;;;7.78;3.15;;;;;;;;;;5040841;28;20025;-83
2021/07/21 09:56:46;;;;;;;7.57;3.50;;;;;;;;;;5043811;28;20028;-82
2021/07/21 09:59:21;;;;;;;6.80;4.55;;;;;;;;;;5038733;28;20074;-87
2021/07/21 10:01:47;;;;;;;7.25;5.10;;;;;;;;;;5041079;28;20029;-83
2021/07/21 10:04:15;;;;;;;6.85;3.45;;;;;;;;;;5037308;28;20037;-83
2021/07/21 10:06:41;;;;;;;7.65;3.22;;;;;;;;;;5047093;28;20026;-83
2021/07/21 10:09:07;;;;;;;6.88;3.80;;;;;;;;;;5055922;28;19997;-85
2021/07/21 10:11:36;;;;;;;7.85;5.00;;;;;;;;;;5051472;28;20041;-86
2021/07/21 10:14:02;;;;;;;8.43;3.58;;;;;;;;;;5034812;28;20049;-84
2021/07/21 10:16:48;;;;;;;7.32;3.20;;;;;;;;;;5016847;28;20092;-84
2021/07/21 10:19:19;;;;;;;8.18;5.90;;;;;;;;;;5023980;28;20046;-88
2021/07/21 10:22:04;;;;;;;9.77;6.00;;;;;;;;;;5016963;28;20469;-82
2021/07/21 10:24:34;;;;;;;8.05;3.58;;;;;;;;;;5020128;28;20034;-87
2021/07/21 10:27:05;;;;;;;7.40;2.78;;;;;;;;;;5018677;28;20034;-85
2021/07/21 10:29:32;;;;;;;6.78;3.15;;;;;;;;;;5019117;28;20022;-87
2021/07/21 10:31:58;;;;;;;8.73;6.38;;;;;;;;;;5016498;28;20462;-83
2021/07/21 10:34:24;;;;;;;14.45;3.15;;;;;;;;;;5015705;28;20026;-82
2021/07/21 10:36:51;;;;;;;8.05;5.28;;;;;;;;;;5015731;28;20053;-83
2021/07/21 10:39:32;;;;;;;7.90;4.22;;;;;;;;;;5015849;28;20078;-82
2021/07/21 10:42:14;;;;;;;6.38;2.78;;;;;;;;;;5017650;28;20020;-83
2021/07/21 10:44:40;;;;;;;7.13;3.63;;;;;;;;;;5017644;28;20049;-84
2021/07/21 10:47:26;;;;;;;7.65;4.38;;;;;;;;;;5016739;28;20482;-84
2021/07/21 10:49:57;;;;;;;7.72;4.72;;;;;;;;;;5016951;28;20022;-84
2021/07/21 10:55:27;;;;;;;7.32;3.65;;;;;;;;;;5017166;28;20569;-83
2021/07/21 11:00:59;;;;;;;6.80;3.88;;;;;;;;;;5018354;28;20096;-84
2021/07/21 11:03:31;;;;;;;7.32;4.38;;;;;;;;;;5016415;28;20025;-84
2021/07/21 11:06:03;;;;;;;6.72;3.92;;;;;;;;;;5017395;28;20437;-84
2021/07/21 11:08:30;;;;;;;8.38;3.90;;;;;;;;;;5018147;28;20036;-83
2021/07/21 11:11:25;;;;;;;7.47;4.45;;;;;;;;;;5020684;28;20064;-83
2021/07/21 11:13:59;;;;;;;11.43;4.10;;;;;;;;;;5033854;28;20057;-85
2021/07/21 11:16:48;;;;;;;7.65;3.30;;;;;;;;;;5030422;28;20026;-83
2021/07/21 11:19:42;;;;;;;8.23;5.05;;;;;;;;;;5016140;28;20046;-83
2021/07/21 11:22:12;;;;;;;12.07;3.92;;;;;;;;;;5016362;28;20044;-83
2021/07/21 11:24:59;;;;;;;7.00;2.67;;;;;;;;;;5015794;28;20493;-85
2021/07/21 11:27:46;;;;;;;9.05;4.13;;;;;;;;;;5015960;28;20026;-85
2021/07/21 11:30:41;;;;;;;10.18;3.08;;;;;;;;;;5025165;28;20002;-88
2021/07/21 11:33:46;;;;;;;7.85;3.35;;;;;;;;;;5014787;28;20077;-86
2021/07/21 11:36:43;;;;;;;10.20;2.53;;;;;;;;;;5015099;28;20033;-85
2021/07/21 11:39:38;;;;;;;7.93;3.42;;;;;;;;;;5020391;28;20470;-84
2021/07/21 11:42:05;;;;;;;9.43;5.05;;;;;;;;;;5015583;28;20107;-88
2021/07/21 11:44:38;;;;;;;13.55;3.65;;;;;;;;;;5015858;28;20033;-87
2021/07/21 11:47:13;;;;;;;8.82;5.00;;;;;;;;;;5031064;28;20050;-84
2021/07/21 11:49:46;;;;;;;9.68;3.45;;;;;;;;;;5016184;28;20080;-82
2021/07/21 11:52:12;;;;;;;8.55;3.75;;;;;;;;;;5015812;28;20084;-81
2021/07/21 11:54:38;;;;;;;8.77;4.75;;;;;;;;;;5016479;28;20030;-87
2021/07/21 11:57:07;;;;;;;6.07;3.00;;;;;;;;;;5015438;28;20030;-86
2021/07/21 11:59:40;;;;;;;9.00;4.03;;;;;;;;;;5016011;28;20363;-86
2021/07/21 12:02:13;;;;;;;12.07;5.47;;;;;;;;;;5015120;28;20025;-84
2021/07/21 12:04:44;;;;;;;9.43;4.00;;;;;;;;;;5015581;28;20026;-84
2021/07/21 12:07:22;;;;;;;24.60;13.88;;;;;;;;;;5015793;28;20482;-85
2021/07/21 12:09:50;;;;;;;23.05;9.57;;;;;;;;;;5015253;28;20032;-84
2021/07/21 12:12:18;;;;;;;70.18;29.20;;;;;;;;;;5015050;28;20068;-84
2021/07/21 12:14:51;;;;;;;17.23;7.32;;;;;;;;;;5028563;28;20041;-84
2021/07/21 12:17:17;;;;;;;10.75;4.78;;;;;;;;;;5044014;28;20022;-85
2021/07/21 12:20:01;;;;;;;7.97;3.70;;;;;;;;;;5012844;28;20108;-86
2021/07/21 12:22:31;;;;;;;11.52;5.32;;;;;;;;;;5015046;28;20038;-83
2021/07/21 12:24:59;;;;;;;16.30;6.78;;;;;;;;;;5014436;28;20022;-86
2021/07/21 12:27:33;;;;;;;16.20;7.63;;;;;;;;;;5018575;28;20386;-85
2021/07/21 12:30:11;;;;;;;13.77;6.35;;;;;;;;;;5017790;28;20029;-87
2021/07/21 12:32:37;;;;;;;13.15;7.75;;;;;;;;;;5019263;28;20109;-90
2021/07/21 12:35:05;;;;;;;8.30;5.72;;;;;;;;;;5033932;28;20112;-86
2021/07/21 12:37:39;;;;;;;10.05;4.80;;;;;;;;;;5033085;28;20029;-89
2021/07/21 12:40:12;;;;;;;10.43;4.82;;;;;;;;;;5017840;28;20030;-91
2021/07/21 12:42:39;;;;;;;9.98;4.50;;;;;;;;;;5019912;28;20466;-91
2021/07/21 12:45:13;;;;;;;10.15;4.85;;;;;;;;;;5018115;28;20105;-89
2021/07/21 12:47:43;;;;;;;8.95;4.90;;;;;;;;;;5017987;28;20029;-88
2021/07/21 12:50:28;;;;;;;14.98;4.80;;;;;;;;;;5033412;28;20065;-84
2021/07/21 12:53:05;;;;;;;9.65;3.85;;;;;;;;;;5019742;28;20504;-86
2021/07/21 12:55:38;;;;;;;9.27;5.47;;;;;;;;;;5019212;28;20034;-85
2021/07/21 12:58:08;;;;;;;10.68;5.45;;;;;;;;;;5017763;28;20030;-86
2021/07/21 13:00:39;;;;;;;12.05;4.38;;;;;;;;;;5032837;28;20018;-87
2021/07/21 13:03:07;;;;;;;11.88;4.25;;;;;;;;;;5018734;28;20052;-86
2021/07/21 13:05:44;;;;;;;8.93;4.32;;;;;;;;;;5018235;28;20022;-88
2021/07/21 13:08:24;;;;;;;10.32;4.43;;;;;;;;;;5018785;28;20033;-89
2021/07/21 13:11:13;;;;;;;9.38;3.42;;;;;;;;;;5033391;28;20052;-89
2021/07/21 13:13:52;;;;;;;7.93;3.90;;;;;;;;;;5032974;28;20022;-89
2021/07/21 13:16:29;;;;;;;9.80;3.42;;;;;;;;;;5020235;28;20030;-84
2021/07/21 13:19:07;;;;;;;8.63;4.60;;;;;;;;;;5018914;28;20058;-87
2021/07/21 13:21:37;;;;;;;9.82;3.30;;;;;;;;;;5033325;28;20041;-87
2021/07/21 13:24:05;;;;;;;8.95;3.85;;;;;;;;;;5017149;28;20029;-85
2021/07/21 13:26:32;;;;;;;10.20;4.47;;;;;;;;;;5016721;28;20049;-86
2021/07/21 13:29:03;;;;;;;12.02;4.35;;;;;;;;;;5032059;28;20049;-86
2021/07/21 13:31:49;;;;;;;10.93;3.70;;;;;;;;;;5016634;28;20481;-89
2021/07/21 13:34:22;;;;;;;10.63;3.78;;;;;;;;;;5018359;28;20041;-88
2021/07/21 13:36:53;;;;;;;12.60;5.95;;;;;;;;;;5031788;28;20026;-88
2021/07/21 13:39:22;;;;;;;8.93;4.38;;;;;;;;;;5031006;28;20505;-87
2021/07/21 13:41:51;;;;;;;10.80;5.18;;;;;;;;;;5016045;28;20358;-89
2021/07/21 13:44:19;;;;;;;8.93;5.43;;;;;;;;;;5016959;28;20026;-89
2021/07/21 13:46:54;;;;;;;10.00;4.32;;;;;;;;;;5018047;28;20029;-88
2021/07/21 13:49:31;;;;;;;12.10;4.50;;;;;;;;;;5017964;28;20087;-88
2021/07/21 13:52:05;;;;;;;10.98;4.65;;;;;;;;;;5016111;28;20030;-88
2021/07/21 13:54:36;;;;;;;11.10;4.95;;;;;;;;;;5017220;28;20125;-88
2021/07/21 13:57:16;;;;;;;10.93;6.25;;;;;;;;;;5032596;28;20025;-87
2021/07/21 13:59:44;;;;;;;10.13;4.97;;;;;;;;;;5031409;28;20026;-85
2021/07/21 14:02:14;;;;;;;9.32;4.15;;;;;;;;;;5016902;28;20029;-85
2021/07/21 14:04:40;;;;;;;8.57;4.20;;;;;;;;;;5016420;28;20032;-84
2021/07/21 14:07:08;;;;;;;9.68;4.55;;;;;;;;;;5016729;28;20030;-83
2021/07/21 14:09:34;;;;;;;11.32;5.25;;;;;;;;;;5016228;28;20084;-88
2021/07/21 14:12:00;;;;;;;8.75;3.72;;;;;;;;;;5014965;28;20096;-88
2021/07/21 14:14:27;;;;;;;8.48;4.07;;;;;;;;;;5015457;28;20034;-87
2021/07/21 14:16:53;;;;;;;8.02;3.92;;;;;;;;;;5031539;28;20529;-86
2021/07/21 14:19:20;;;;;;;8.23;4.07;;;;;;;;;;5016090;28;20486;-86
2021/07/21 14:21:49;;;;;;;9.10;5.88;;;;;;;;;;5018134;28;20441;-84
2021/07/21 14:24:15;;;;;;;8.45;3.63;;;;;;;;;;5015433;28;20026;-86
2021/07/21 14:26:41;;;;;;;8.80;3.75;;;;;;;;;;5016499;28;20501;-84
2021/07/21 14:29:10;;;;;;;11.55;5.38;;;;;;;;;;5016739;28;20029;-85
2021/07/21 14:31:37;;;;;;;8.82;4.00;;;;;;;;;;5016605;28;20034;-85
2021/07/21 14:34:03;;;;;;;10.93;3.80;;;;;;;;;;5016457;28;20485;-87
2021/07/21 14:36:28;;;;;;;11.68;5.78;;;;;;;;;;5016861;28;20022;-83
2021/07/21 14:38:55;;;;;;;9.38;5.00;;;;;;;;;;5019251;28;20026;-80
2021/07/21 14:41:28;;;;;;;8.38;3.38;;;;;;;;;;5046572;28;20021;-81
2021/07/21 14:43:54;;;;;;;12.77;5.85;;;;;;;;;;5058494;28;20021;-79
2021/07/21 14:46:23;;;;;;;9.82;3.80;;;;;;;;;;5039853;28;20104;-79
2021/07/21 14:48:49;;;;;;;;;;;;;;;;;;5035450;28;20030;-79
2021/07/21 14:51:15;;;;;;;12.82;4.10;;;;;;;;;;5015123;28;19921;-80
2021/07/21 14:53:41;;;;;;;11.52;4.30;;;;;;;;;;5018268;28;20034;-80
2021/07/21 14:56:06;;;;;;;15.07;5.22;;;;;;;;;;5016642;28;20114;-80
2021/07/21 14:58:32;;;;;;;11.43;4.63;;;;;;;;;;5016424;28;20041;-79
2021/07/21 15:00:58;;;;;;;14.77;5.55;;;;;;;;;;5016255;28;20022;-79